Time;durP1;ratioP1;P1;durP2;ratioP2;P2;SDS_P1;SDS_P2;PMS_P1;PMS_P2;Temp;Humidity;BMP_temperature;BMP_pressure;BME280_temperature;BME280_humidity;BME280_pressure;Samples;Min_cycle;Max_cycle;Signal;HPM_P1;HPM_P2
2021/09/15 00:01:04;;;;;;;23.33;16.02;;;;;;;;;;5025844;28;20148;-64
2021/09/15 00:03:33;;;;;;;22.83;14.15;;;;;;;;;;5015582;28;20506;-64
2021/09/15 00:05:59;;;;;;;20.77;16.20;;;;;;;;;;5022909;28;20026;-64
2021/09/15 00:08:24;;;;;;;25.38;16.52;;;;;;;;;;5034976;28;20026;-63
2021/09/15 00:10:50;;;;;;;20.83;14.57;;;;;;;;;;5027629;28;20045;-64
2021/09/15 00:13:15;;;;;;;21.58;17.02;;;;;;;;;;5014968;28;20065;-64
2021/09/15 00:15:40;;;;;;;22.85;15.48;;;;;;;;;;5019930;28;20057;-64
2021/09/15 00:18:06;;;;;;;21.40;14.10;;;;;;;;;;5034651;28;20079;-64
2021/09/15 00:20:31;;;;;;;21.73;13.52;;;;;;;;;;5034175;28;20103;-64
2021/09/15 00:22:56;;;;;;;17.70;13.57;;;;;;;;;;5034576;28;20037;-64
2021/09/15 00:25:21;;;;;;;20.33;14.38;;;;;;;;;;5031092;28;20034;-64
2021/09/15 00:27:46;;;;;;;23.27;15.52;;;;;;;;;;5013305;28;20025;-64
2021/09/15 00:30:12;;;;;;;19.02;13.82;;;;;;;;;;5015734;28;20079;-64
2021/09/15 00:32:37;;;;;;;19.50;14.63;;;;;;;;;;5034323;28;20101;-64
2021/09/15 00:35:06;;;;;;;20.63;14.23;;;;;;;;;;5034144;28;20472;-64
2021/09/15 00:37:31;;;;;;;25.67;14.95;;;;;;;;;;5034236;28;20026;-64
2021/09/15 00:39:56;;;;;;;19.80;14.20;;;;;;;;;;5032988;28;20017;-64
2021/09/15 00:42:21;;;;;;;25.25;15.60;;;;;;;;;;5033814;28;20033;-64
2021/09/15 00:44:46;;;;;;;19.17;14.35;;;;;;;;;;5034179;28;20021;-64
2021/09/15 00:47:12;;;;;;;19.40;13.65;;;;;;;;;;5033553;28;20041;-64
2021/09/15 00:49:37;;;;;;;17.80;13.45;;;;;;;;;;5033945;28;20013;-64
2021/09/15 00:52:02;;;;;;;26.05;14.43;;;;;;;;;;5033672;28;20038;-64
2021/09/15 00:54:27;;;;;;;24.48;15.73;;;;;;;;;;5034095;28;20090;-64
2021/09/15 00:56:53;;;;;;;18.77;13.75;;;;;;;;;;5018280;28;20079;-64
2021/09/15 00:59:18;;;;;;;21.00;15.68;;;;;;;;;;5014175;28;20021;-64
2021/09/15 01:01:43;;;;;;;20.85;14.95;;;;;;;;;;5013613;28;20042;-64
2021/09/15 01:04:08;;;;;;;19.88;15.13;;;;;;;;;;5012794;28;20014;-63
2021/09/15 01:06:34;;;;;;;24.90;14.88;;;;;;;;;;5013535;28;20030;-63
2021/09/15 01:08:59;;;;;;;20.45;14.23;;;;;;;;;;5012476;28;20066;-64
2021/09/15 01:11:24;;;;;;;21.63;15.25;;;;;;;;;;5013597;28;20045;-64
2021/09/15 01:13:49;;;;;;;24.15;15.52;;;;;;;;;;5013806;28;20029;-63
2021/09/15 01:16:15;;;;;;;19.15;14.73;;;;;;;;;;5012036;28;20034;-64
2021/09/15 01:18:40;;;;;;;29.65;16.15;;;;;;;;;;5012219;28;20029;-64
2021/09/15 01:21:08;;;;;;;23.77;15.75;;;;;;;;;;5022371;28;20034;-64
2021/09/15 01:23:34;;;;;;;22.42;16.60;;;;;;;;;;5033133;28;20017;-64
2021/09/15 01:25:59;;;;;;;23.52;16.45;;;;;;;;;;5024991;28;20022;-64
2021/09/15 01:28:24;;;;;;;22.08;16.25;;;;;;;;;;5013548;28;20021;-63
2021/09/15 01:30:49;;;;;;;21.83;15.15;;;;;;;;;;5013207;28;20037;-64
2021/09/15 01:33:15;;;;;;;25.25;16.58;;;;;;;;;;5013735;28;20029;-64
2021/09/15 01:35:40;;;;;;;24.15;16.20;;;;;;;;;;5013253;28;20100;-63
2021/09/15 01:38:06;;;;;;;21.33;15.15;;;;;;;;;;5013635;28;20022;-63
2021/09/15 01:40:31;;;;;;;29.90;16.27;;;;;;;;;;5012172;28;20120;-64
2021/09/15 01:42:56;;;;;;;23.73;15.85;;;;;;;;;;5013095;28;20380;-64
2021/09/15 01:45:21;;;;;;;23.65;16.08;;;;;;;;;;5012880;28;20092;-64
2021/09/15 01:47:46;;;;;;;22.30;16.05;;;;;;;;;;5013176;28;20022;-64
2021/09/15 01:50:12;;;;;;;21.42;16.60;;;;;;;;;;5014417;28;20447;-64
2021/09/15 01:52:38;;;;;;;23.05;16.30;;;;;;;;;;5032703;28;20405;-63
2021/09/15 01:55:04;;;;;;;23.10;17.40;;;;;;;;;;5032718;28;20026;-63
2021/09/15 01:57:29;;;;;;;22.25;16.05;;;;;;;;;;5032301;28;20499;-64
2021/09/15 01:59:55;;;;;;;20.13;15.23;;;;;;;;;;5032118;28;20032;-64
2021/09/15 02:02:21;;;;;;;20.75;15.15;;;;;;;;;;5032299;28;20092;-63
2021/09/15 02:04:46;;;;;;;25.30;14.73;;;;;;;;;;5032975;28;20029;-64
2021/09/15 02:07:11;;;;;;;17.92;14.73;;;;;;;;;;5032289;28;20025;-64
2021/09/15 02:09:36;;;;;;;21.33;16.10;;;;;;;;;;5032607;28;20043;-63
2021/09/15 02:12:02;;;;;;;22.67;15.55;;;;;;;;;;5032345;28;20499;-64
2021/09/15 02:14:27;;;;;;;26.95;17.58;;;;;;;;;;5032605;28;20033;-64
2021/09/15 02:16:52;;;;;;;22.92;16.23;;;;;;;;;;5017119;28;20034;-63
2021/09/15 02:19:17;;;;;;;23.83;14.35;;;;;;;;;;5011227;28;20014;-64
2021/09/15 02:21:43;;;;;;;22.85;15.63;;;;;;;;;;5012243;28;20101;-63
2021/09/15 02:24:08;;;;;;;19.70;14.55;;;;;;;;;;5012773;28;20033;-63
2021/09/15 02:26:33;;;;;;;24.35;18.90;;;;;;;;;;5012391;28;20030;-63
2021/09/15 02:28:59;;;;;;;29.30;20.30;;;;;;;;;;5012836;28;20457;-64
2021/09/15 02:31:24;;;;;;;27.05;18.85;;;;;;;;;;5012209;28;20033;-64
2021/09/15 02:33:49;;;;;;;29.88;19.38;;;;;;;;;;5012839;28;20026;-63
2021/09/15 02:36:14;;;;;;;29.65;19.08;;;;;;;;;;5012320;28;20392;-63
2021/09/15 02:38:39;;;;;;;28.65;21.00;;;;;;;;;;4993823;28;20018;-64
2021/09/15 02:41:05;;;;;;;31.88;20.63;;;;;;;;;;5001484;28;20030;-63
2021/09/15 02:43:30;;;;;;;36.42;22.05;;;;;;;;;;5012675;28;20026;-63
2021/09/15 02:45:55;;;;;;;33.17;21.80;;;;;;;;;;5011042;28;20026;-64
2021/09/15 02:48:21;;;;;;;38.15;22.67;;;;;;;;;;5012862;28;20048;-63
2021/09/15 02:50:46;;;;;;;30.42;21.75;;;;;;;;;;5005969;28;20034;-64
2021/09/15 02:53:11;;;;;;;32.03;21.63;;;;;;;;;;4993140;28;20014;-63
2021/09/15 02:55:36;;;;;;;29.85;20.77;;;;;;;;;;4992609;28;20027;-64
2021/09/15 02:58:03;;;;;;;29.75;20.10;;;;;;;;;;4992833;28;20030;-63
2021/09/15 03:00:29;;;;;;;30.17;20.63;;;;;;;;;;4996269;28;20038;-63
2021/09/15 03:02:54;;;;;;;32.97;21.88;;;;;;;;;;5027627;28;20024;-64
2021/09/15 03:05:19;;;;;;;34.97;22.25;;;;;;;;;;5012156;28;20134;-64
2021/09/15 03:07:44;;;;;;;36.90;23.67;;;;;;;;;;5012709;28;20380;-63
2021/09/15 03:10:10;;;;;;;32.25;24.20;;;;;;;;;;5010636;28;20508;-64
2021/09/15 03:12:35;;;;;;;34.10;25.38;;;;;;;;;;4995549;28;20018;-63
2021/09/15 03:15:00;;;;;;;38.55;25.95;;;;;;;;;;4996501;28;20169;-63
2021/09/15 03:17:25;;;;;;;37.95;25.20;;;;;;;;;;4996323;28;20113;-63
2021/09/15 03:19:50;;;;;;;40.95;27.38;;;;;;;;;;4996445;28;20092;-63
2021/09/15 03:22:16;;;;;;;36.72;26.92;;;;;;;;;;4996181;28;20078;-63
2021/09/15 03:24:41;;;;;;;40.78;27.10;;;;;;;;;;4996358;28;20077;-63
2021/09/15 03:27:06;;;;;;;39.92;26.33;;;;;;;;;;5012592;28;20096;-63
2021/09/15 03:29:32;;;;;;;34.95;23.33;;;;;;;;;;5030026;28;20427;-63
2021/09/15 03:31:57;;;;;;;32.65;23.60;;;;;;;;;;5019278;28;20128;-64
2021/09/15 03:34:22;;;;;;;32.45;22.95;;;;;;;;;;5015702;28;20022;-63
2021/09/15 03:36:48;;;;;;;34.03;21.45;;;;;;;;;;5015418;28;20061;-63
2021/09/15 03:39:14;;;;;;;29.90;20.58;;;;;;;;;;5015831;28;20026;-63
2021/09/15 03:41:39;;;;;;;29.80;22.63;;;;;;;;;;5015279;28;20085;-63
2021/09/15 03:44:04;;;;;;;28.60;21.67;;;;;;;;;;5015698;28;20105;-63
2021/09/15 03:46:30;;;;;;;33.13;23.00;;;;;;;;;;5015303;28;20125;-64
2021/09/15 03:48:55;;;;;;;34.97;23.27;;;;;;;;;;5014345;28;20418;-64
2021/09/15 03:51:20;;;;;;;36.25;22.20;;;;;;;;;;5015061;28;20041;-63
2021/09/15 03:53:45;;;;;;;28.58;19.70;;;;;;;;;;5015521;28;20083;-63
2021/09/15 03:56:10;;;;;;;28.00;20.33;;;;;;;;;;5015030;28;20109;-63
2021/09/15 03:58:36;;;;;;;30.13;20.27;;;;;;;;;;5015191;28;20164;-63
2021/09/15 04:01:01;;;;;;;31.13;20.05;;;;;;;;;;5014543;28;20065;-64
2021/09/15 04:03:26;;;;;;;32.13;21.55;;;;;;;;;;5015293;28;20041;-63
2021/09/15 04:05:51;;;;;;;36.17;22.48;;;;;;;;;;5014673;28;20033;-63
2021/09/15 04:08:17;;;;;;;33.80;22.27;;;;;;;;;;5015161;28;20022;-63
2021/09/15 04:10:42;;;;;;;33.75;23.13;;;;;;;;;;5014588;28;20054;-63
2021/09/15 04:13:08;;;;;;;32.47;22.63;;;;;;;;;;5015254;28;20100;-63
2021/09/15 04:15:33;;;;;;;30.05;23.10;;;;;;;;;;5014681;28;20029;-63
2021/09/15 04:17:58;;;;;;;33.42;22.45;;;;;;;;;;5015217;28;20365;-63
2021/09/15 04:20:24;;;;;;;31.52;23.17;;;;;;;;;;5014531;28;20038;-63
2021/09/15 04:22:49;;;;;;;30.92;23.10;;;;;;;;;;5014581;28;20043;-63
2021/09/15 04:33:26;;;;;;;36.00;21.95;;;;;;;;;;5014813;28;20361;-64
2021/09/15 04:35:52;;;;;;;33.85;22.88;;;;;;;;;;5014385;28;20018;-64
2021/09/15 04:38:17;;;;;;;27.75;20.85;;;;;;;;;;5013461;28;20491;-64
2021/09/15 04:40:42;;;;;;;31.88;22.60;;;;;;;;;;5014173;28;20120;-64
2021/09/15 04:43:07;;;;;;;32.67;21.77;;;;;;;;;;5014520;28;20072;-64
2021/09/15 04:45:32;;;;;;;32.65;21.25;;;;;;;;;;5014063;28;20177;-64
2021/09/15 04:47:58;;;;;;;27.67;20.95;;;;;;;;;;5014339;28;20026;-64
2021/09/15 04:50:23;;;;;;;34.58;22.10;;;;;;;;;;5014387;28;20034;-64
2021/09/15 04:52:48;;;;;;;29.45;20.40;;;;;;;;;;5012976;28;20014;-64
2021/09/15 04:55:13;;;;;;;28.80;20.77;;;;;;;;;;5013741;28;20091;-63
2021/09/15 04:57:39;;;;;;;33.22;21.90;;;;;;;;;;5014319;28;20072;-64
2021/09/15 05:00:04;;;;;;;28.48;20.85;;;;;;;;;;5013892;28;20112;-65
2021/09/15 05:02:29;;;;;;;26.00;20.17;;;;;;;;;;5014228;28;20099;-63
2021/09/15 05:04:55;;;;;;;32.13;20.77;;;;;;;;;;5013959;28;20488;-64
2021/09/15 05:07:20;;;;;;;27.00;19.05;;;;;;;;;;5013484;28;20561;-64
2021/09/15 05:09:45;;;;;;;26.52;17.63;;;;;;;;;;5013690;28;20171;-64
2021/09/15 05:12:10;;;;;;;25.65;17.95;;;;;;;;;;5013508;28;20176;-64
2021/09/15 05:14:36;;;;;;;24.13;17.98;;;;;;;;;;5012579;28;20041;-65
2021/09/15 05:17:01;;;;;;;27.58;17.13;;;;;;;;;;5013441;28;20046;-66
2021/09/15 05:19:26;;;;;;;25.73;17.27;;;;;;;;;;5012626;28;20026;-64
2021/09/15 05:21:51;;;;;;;23.20;17.13;;;;;;;;;;5013036;28;20088;-64
2021/09/15 05:24:16;;;;;;;29.17;18.20;;;;;;;;;;5013734;28;20064;-65
2021/09/15 05:26:42;;;;;;;23.73;17.77;;;;;;;;;;5013313;28;20084;-64
2021/09/15 05:29:07;;;;;;;23.83;18.17;;;;;;;;;;5012340;28;20034;-64
2021/09/15 05:31:32;;;;;;;27.70;17.55;;;;;;;;;;5013729;28;20046;-66
2021/09/15 05:33:57;;;;;;;27.55;18.75;;;;;;;;;;5012947;28;20156;-65
2021/09/15 05:36:23;;;;;;;25.48;17.48;;;;;;;;;;5013075;28;20037;-65
2021/09/15 05:38:48;;;;;;;23.38;17.35;;;;;;;;;;5013534;28;20076;-65
2021/09/15 05:41:13;;;;;;;27.95;17.65;;;;;;;;;;5013357;28;20061;-65
2021/09/15 05:43:38;;;;;;;27.45;17.63;;;;;;;;;;5013624;28;20466;-65
2021/09/15 05:46:04;;;;;;;25.63;17.20;;;;;;;;;;5013133;28;20176;-65
2021/09/15 05:48:29;;;;;;;25.10;17.40;;;;;;;;;;5013715;28;20021;-65
2021/09/15 05:50:54;;;;;;;26.23;18.60;;;;;;;;;;5013236;28;20073;-65
2021/09/15 05:53:19;;;;;;;27.35;19.45;;;;;;;;;;5013482;28;20480;-65
2021/09/15 05:55:45;;;;;;;25.58;17.88;;;;;;;;;;5012890;28;20033;-65
2021/09/15 05:58:10;;;;;;;24.73;18.52;;;;;;;;;;5013271;28;20030;-65
2021/09/15 06:00:36;;;;;;;27.38;17.88;;;;;;;;;;5012527;28;20041;-65
2021/09/15 06:03:01;;;;;;;24.85;16.90;;;;;;;;;;5013146;28;20029;-65
2021/09/15 06:05:26;;;;;;;27.55;17.85;;;;;;;;;;5012677;28;20030;-66
2021/09/15 06:07:51;;;;;;;30.30;18.15;;;;;;;;;;5011638;28;20198;-65
2021/09/15 06:10:16;;;;;;;23.65;15.85;;;;;;;;;;5012300;28;20128;-65
2021/09/15 06:12:42;;;;;;;35.65;16.15;;;;;;;;;;5012983;28;20128;-66
2021/09/15 06:15:07;;;;;;;25.27;16.55;;;;;;;;;;5012617;28;20489;-65
2021/09/15 06:17:32;;;;;;;26.85;16.13;;;;;;;;;;5012752;28;20022;-65
2021/09/15 06:19:58;;;;;;;21.63;15.48;;;;;;;;;;5012764;28;20026;-65
2021/09/15 06:22:23;;;;;;;21.90;15.77;;;;;;;;;;5011122;28;20065;-66
2021/09/15 06:24:53;;;;;;;18.90;14.38;;;;;;;;;;5011709;28;20018;-65
2021/09/15 06:27:18;;;;;;;27.08;15.23;;;;;;;;;;5012249;28;20065;-65
2021/09/15 06:29:44;;;;;;;24.15;15.13;;;;;;;;;;5012561;28;20057;-66
2021/09/15 06:32:09;;;;;;;20.77;14.88;;;;;;;;;;5012254;28;20037;-65
2021/09/15 06:34:34;;;;;;;21.50;14.98;;;;;;;;;;5011462;28;20045;-66
2021/09/15 06:36:59;;;;;;;23.02;14.93;;;;;;;;;;5012240;28;20058;-66
2021/09/15 06:39:24;;;;;;;22.35;16.10;;;;;;;;;;5012794;28;20046;-66
2021/09/15 06:41:50;;;;;;;24.00;16.10;;;;;;;;;;5012252;28;20065;-65
2021/09/15 06:44:15;;;;;;;21.60;13.43;;;;;;;;;;5013010;28;20018;-66
2021/09/15 06:46:40;;;;;;;24.83;13.85;;;;;;;;;;5015339;28;20120;-65
2021/09/15 06:49:05;;;;;;;20.70;12.45;;;;;;;;;;5016584;28;20014;-65
2021/09/15 06:51:31;;;;;;;20.70;12.90;;;;;;;;;;5014723;28;20079;-66
2021/09/15 06:53:56;;;;;;;17.42;12.02;;;;;;;;;;5016544;28;20052;-66
2021/09/15 06:56:21;;;;;;;22.60;11.18;;;;;;;;;;5016062;28;20033;-66
2021/09/15 06:58:46;;;;;;;16.35;11.10;;;;;;;;;;5015103;28;20056;-65
2021/09/15 07:01:12;;;;;;;17.38;10.93;;;;;;;;;;5015877;28;20114;-66
2021/09/15 07:03:37;;;;;;;19.90;11.25;;;;;;;;;;5016382;28;20105;-66
2021/09/15 07:06:02;;;;;;;20.48;11.32;;;;;;;;;;5015957;28;20109;-66
2021/09/15 07:08:27;;;;;;;13.32;10.57;;;;;;;;;;5016211;28;20101;-66
2021/09/15 07:10:52;;;;;;;14.00;10.57;;;;;;;;;;5015664;28;20053;-66
2021/09/15 07:13:18;;;;;;;16.27;10.43;;;;;;;;;;5016141;28;20033;-66
2021/09/15 07:15:44;;;;;;;17.90;11.45;;;;;;;;;;5015562;28;20026;-66
2021/09/15 07:18:10;;;;;;;21.10;12.88;;;;;;;;;;5016036;28;20056;-66
2021/09/15 07:20:35;;;;;;;20.77;13.00;;;;;;;;;;5015731;28;20034;-66
2021/09/15 07:23:00;;;;;;;21.58;13.02;;;;;;;;;;5015920;28;20037;-66
2021/09/15 07:25:25;;;;;;;20.10;12.80;;;;;;;;;;5015154;28;20025;-66
2021/09/15 07:27:51;;;;;;;18.08;11.80;;;;;;;;;;5015869;28;20483;-65
2021/09/15 07:30:16;;;;;;;18.20;11.60;;;;;;;;;;5015679;28;20101;-66
2021/09/15 07:32:41;;;;;;;17.52;11.07;;;;;;;;;;5015959;28;20494;-66
2021/09/15 07:35:09;;;;;;;18.42;11.35;;;;;;;;;;5014045;28;20515;-65
2021/09/15 07:37:34;;;;;;;16.92;11.10;;;;;;;;;;5015705;28;20022;-66
2021/09/15 07:40:00;;;;;;;17.17;11.52;;;;;;;;;;5015710;28;20076;-66
2021/09/15 07:42:25;;;;;;;17.83;11.65;;;;;;;;;;5015279;28;20049;-65
2021/09/15 07:44:50;;;;;;;23.75;13.77;;;;;;;;;;5015584;28;20026;-65
2021/09/15 07:47:16;;;;;;;19.05;12.43;;;;;;;;;;5033612;28;20033;-66
2021/09/15 07:49:46;;;;;;;16.42;12.07;;;;;;;;;;5035304;28;20026;-65
2021/09/15 07:52:11;;;;;;;17.77;12.25;;;;;;;;;;5034662;28;20034;-66
2021/09/15 07:54:37;;;;;;;16.90;11.73;;;;;;;;;;5035440;28;20025;-65
2021/09/15 07:57:02;;;;;;;18.83;12.52;;;;;;;;;;5033902;28;20432;-66
2021/09/15 07:59:27;;;;;;;20.20;11.98;;;;;;;;;;5035059;28;20021;-65
2021/09/15 08:01:52;;;;;;;16.67;11.80;;;;;;;;;;5034510;28;20168;-65
2021/09/15 08:04:17;;;;;;;15.65;12.38;;;;;;;;;;5034857;28;20059;-66
2021/09/15 08:06:43;;;;;;;16.10;11.43;;;;;;;;;;5034329;28;20090;-65
2021/09/15 08:09:08;;;;;;;20.80;12.57;;;;;;;;;;5034522;28;20132;-66
2021/09/15 08:11:33;;;;;;;20.92;12.32;;;;;;;;;;5032993;28;20128;-66
2021/09/15 08:13:59;;;;;;;17.45;12.50;;;;;;;;;;5034792;28;20094;-66
2021/09/15 08:16:24;;;;;;;19.00;12.52;;;;;;;;;;5033021;28;20387;-66
2021/09/15 08:18:49;;;;;;;18.42;12.70;;;;;;;;;;5034549;28;20029;-66
2021/09/15 08:21:14;;;;;;;19.63;12.50;;;;;;;;;;5033927;28;20046;-66
2021/09/15 08:23:40;;;;;;;17.80;11.18;;;;;;;;;;5034769;28;20045;-66
2021/09/15 08:26:05;;;;;;;16.00;11.55;;;;;;;;;;5034160;28;20026;-66
2021/09/15 08:28:36;;;;;;;19.73;11.95;;;;;;;;;;5034467;28;20387;-66
2021/09/15 08:31:01;;;;;;;16.77;11.45;;;;;;;;;;5033918;28;20033;-66
2021/09/15 08:33:26;;;;;;;14.38;11.43;;;;;;;;;;5034292;28;20028;-66
2021/09/15 08:35:51;;;;;;;19.80;11.30;;;;;;;;;;5033872;28;20037;-66
2021/09/15 08:38:16;;;;;;;20.35;11.50;;;;;;;;;;5034374;28;20033;-66
2021/09/15 08:40:42;;;;;;;19.38;11.68;;;;;;;;;;5032759;28;20069;-66
2021/09/15 08:43:07;;;;;;;18.27;11.82;;;;;;;;;;5034171;28;20017;-66
2021/09/15 08:45:32;;;;;;;19.83;12.15;;;;;;;;;;5032628;28;20197;-66
2021/09/15 08:47:57;;;;;;;16.60;11.65;;;;;;;;;;5034023;28;20018;-66
2021/09/15 08:50:23;;;;;;;18.70;11.88;;;;;;;;;;5032119;28;20078;-67
2021/09/15 08:52:48;;;;;;;17.10;10.77;;;;;;;;;;5033879;28;20104;-66
2021/09/15 08:55:13;;;;;;;16.95;11.45;;;;;;;;;;5033395;28;20028;-66
2021/09/15 08:57:39;;;;;;;15.40;11.80;;;;;;;;;;5033958;28;20032;-66
2021/09/15 09:00:05;;;;;;;14.95;10.82;;;;;;;;;;5033430;28;20021;-66
2021/09/15 09:02:37;;;;;;;18.02;11.52;;;;;;;;;;5033756;28;20049;-67
2021/09/15 09:05:02;;;;;;;12.75;10.10;;;;;;;;;;5033282;28;20028;-66
2021/09/15 09:07:28;;;;;;;11.65;9.00;;;;;;;;;;5033682;28;20021;-66
2021/09/15 09:09:53;;;;;;;14.35;10.48;;;;;;;;;;5033308;28;20115;-66
2021/09/15 09:12:21;;;;;;;17.98;10.25;;;;;;;;;;5033141;28;20042;-66
2021/09/15 09:14:46;;;;;;;16.58;10.77;;;;;;;;;;5033601;28;20087;-66
2021/09/15 09:17:30;;;;;;;20.00;10.55;;;;;;;;;;5032481;28;20471;-66
2021/09/15 09:20:11;;;;;;;18.55;10.27;;;;;;;;;;5033893;28;20075;-67
2021/09/15 09:22:54;;;;;;;15.35;9.95;;;;;;;;;;5033125;28;20496;-66
2021/09/15 09:25:19;;;;;;;17.42;10.77;;;;;;;;;;5032878;28;20025;-66
2021/09/15 09:27:45;;;;;;;18.30;9.98;;;;;;;;;;5033151;28;20033;-66
2021/09/15 09:30:28;;;;;;;14.82;10.00;;;;;;;;;;5032933;28;20379;-66
2021/09/15 09:32:53;;;;;;;16.20;11.05;;;;;;;;;;5033158;28;20037;-66
2021/09/15 09:35:18;;;;;;;15.07;10.85;;;;;;;;;;5032686;28;20021;-66
2021/09/15 09:37:43;;;;;;;16.02;10.18;;;;;;;;;;5032998;28;20032;-66
2021/09/15 09:40:09;;;;;;;16.17;10.95;;;;;;;;;;5032496;28;20426;-66
2021/09/15 09:42:38;;;;;;;15.70;10.55;;;;;;;;;;5031635;28;20079;-66
2021/09/15 09:45:06;;;;;;;15.27;10.00;;;;;;;;;;5032907;28;20108;-66
2021/09/15 09:47:32;;;;;;;14.88;11.35;;;;;;;;;;5033086;28;20047;-66
2021/09/15 09:50:01;;;;;;;15.93;10.75;;;;;;;;;;5033180;28;20022;-66
2021/09/15 09:52:26;;;;;;;18.03;10.20;;;;;;;;;;5032763;28;20044;-66
2021/09/15 09:54:58;;;;;;;15.70;9.27;;;;;;;;;;5032957;28;20255;-66
2021/09/15 09:57:24;;;;;;;14.20;9.95;;;;;;;;;;5032552;28;20033;-66
2021/09/15 09:59:49;;;;;;;13.13;9.23;;;;;;;;;;5032937;28;20067;-66
2021/09/15 10:02:14;;;;;;;14.50;9.25;;;;;;;;;;5032295;28;20046;-66
2021/09/15 10:04:40;;;;;;;15.88;9.90;;;;;;;;;;5032843;28;20026;-66
2021/09/15 10:07:05;;;;;;;14.20;9.70;;;;;;;;;;5031219;28;20040;-66
2021/09/15 10:09:30;;;;;;;12.63;9.57;;;;;;;;;;5031299;28;20049;-67
2021/09/15 10:11:56;;;;;;;12.10;9.52;;;;;;;;;;5032378;28;20102;-66
2021/09/15 10:14:21;;;;;;;13.55;8.68;;;;;;;;;;5031533;28;20426;-66
2021/09/15 10:16:48;;;;;;;13.38;8.68;;;;;;;;;;5032246;28;20026;-66
2021/09/15 10:19:14;;;;;;;11.70;8.25;;;;;;;;;;5031514;28;20033;-66
2021/09/15 10:21:40;;;;;;;12.07;8.57;;;;;;;;;;5031763;28;20065;-66
2021/09/15 10:24:05;;;;;;;12.32;8.60;;;;;;;;;;5032555;28;20460;-66
2021/09/15 10:26:37;;;;;;;13.43;8.60;;;;;;;;;;5030914;28;20049;-66
2021/09/15 10:29:18;;;;;;;11.98;8.35;;;;;;;;;;5032850;28;20029;-66
2021/09/15 10:32:03;;;;;;;11.40;7.35;;;;;;;;;;5032162;28;20365;-66
2021/09/15 10:37:11;;;;;;;14.45;8.23;;;;;;;;;;5032292;28;20120;-66
2021/09/15 10:39:52;;;;;;;11.63;8.05;;;;;;;;;;5032579;28;20022;-66
2021/09/15 10:42:36;;;;;;;13.10;8.15;;;;;;;;;;5032045;28;20046;-66
2021/09/15 10:45:19;;;;;;;14.57;8.57;;;;;;;;;;5031989;28;20033;-66
2021/09/15 10:47:54;;;;;;;15.20;8.18;;;;;;;;;;5032346;28;20060;-67
2021/09/15 10:50:28;;;;;;;13.40;8.45;;;;;;;;;;5030778;28;20024;-67
2021/09/15 10:53:03;;;;;;;12.13;8.20;;;;;;;;;;5030991;28;20507;-67
2021/09/15 10:55:39;;;;;;;12.95;8.90;;;;;;;;;;5031946;28;20049;-67
2021/09/15 10:58:14;;;;;;;13.23;8.75;;;;;;;;;;5032480;28;20088;-67
2021/09/15 11:00:46;;;;;;;10.15;8.15;;;;;;;;;;5032033;28;20038;-67
2021/09/15 11:03:30;;;;;;;15.80;9.35;;;;;;;;;;5030991;28;20083;-66
2021/09/15 11:06:17;;;;;;;12.20;9.20;;;;;;;;;;5031678;28;20029;-67
2021/09/15 11:08:47;;;;;;;16.65;8.88;;;;;;;;;;5018939;28;20105;-67
2021/09/15 11:11:18;;;;;;;12.80;9.63;;;;;;;;;;5031892;28;20152;-67
2021/09/15 11:13:44;;;;;;;14.35;9.02;;;;;;;;;;5032310;28;20116;-67
2021/09/15 11:16:28;;;;;;;17.92;9.95;;;;;;;;;;5031766;28;20508;-67
2021/09/15 11:18:56;;;;;;;13.02;9.10;;;;;;;;;;5032084;28;20030;-67
2021/09/15 11:21:22;;;;;;;14.82;9.20;;;;;;;;;;5031606;28;20040;-67
2021/09/15 11:23:51;;;;;;;13.57;9.60;;;;;;;;;;5014423;28;20025;-67
2021/09/15 11:26:16;;;;;;;14.55;9.52;;;;;;;;;;5031947;28;20385;-67
2021/09/15 11:28:44;;;;;;;14.68;8.65;;;;;;;;;;5030691;28;20064;-67
2021/09/15 11:31:09;;;;;;;11.98;8.98;;;;;;;;;;5031693;28;20029;-67
2021/09/15 11:33:35;;;;;;;13.82;8.85;;;;;;;;;;5034556;28;20021;-66
2021/09/15 11:36:02;;;;;;;12.63;10.35;;;;;;;;;;5033847;28;20060;-66
2021/09/15 11:38:28;;;;;;;14.45;9.00;;;;;;;;;;5034359;28;20026;-67
2021/09/15 11:41:05;;;;;;;17.13;8.93;;;;;;;;;;5035007;28;20088;-67
2021/09/15 11:43:31;;;;;;;16.65;9.50;;;;;;;;;;5035454;28;20478;-66
2021/09/15 11:45:56;;;;;;;13.68;8.65;;;;;;;;;;5035333;28;20109;-67
2021/09/15 11:48:28;;;;;;;15.38;9.30;;;;;;;;;;5035450;28;20021;-66
2021/09/15 11:50:53;;;;;;;11.95;9.23;;;;;;;;;;5035010;28;20037;-66
2021/09/15 11:53:19;;;;;;;13.68;8.55;;;;;;;;;;5035292;28;20018;-67
2021/09/15 11:56:18;;;;;;;16.05;9.40;;;;;;;;;;5034844;28;20160;-66
2021/09/15 11:58:36;;;;;;;14.88;9.13;;;;;;;;;;5033042;28;20484;-67
2021/09/15 12:01:02;;;;;;;11.95;8.20;;;;;;;;;;5034610;28;20041;-66
2021/09/15 12:03:27;;;;;;;13.80;8.40;;;;;;;;;;5033734;28;20022;-67
2021/09/15 12:06:02;;;;;;;14.10;8.25;;;;;;;;;;5033306;28;20037;-66
2021/09/15 12:08:27;;;;;;;17.35;9.15;;;;;;;;;;5033675;28;20565;-66
2021/09/15 12:10:53;;;;;;;11.48;7.65;;;;;;;;;;5032980;28;20042;-66
2021/09/15 12:13:18;;;;;;;13.63;8.02;;;;;;;;;;5035004;28;20021;-67
2021/09/15 12:15:45;;;;;;;12.00;7.75;;;;;;;;;;5033158;28;20033;-66
2021/09/15 12:18:10;;;;;;;9.90;7.45;;;;;;;;;;5034947;28;20371;-66
2021/09/15 12:20:38;;;;;;;18.30;7.90;;;;;;;;;;5034432;28;20029;-66
2021/09/15 12:23:03;;;;;;;13.93;7.90;;;;;;;;;;5034728;28;20029;-66
2021/09/15 12:25:29;;;;;;;13.20;8.50;;;;;;;;;;5032943;28;20032;-66
2021/09/15 12:27:56;;;;;;;14.32;7.68;;;;;;;;;;5033332;28;20022;-66
2021/09/15 12:30:21;;;;;;;11.27;7.57;;;;;;;;;;5034126;28;20615;-66
2021/09/15 12:32:54;;;;;;;12.65;7.38;;;;;;;;;;5034587;28;20025;-66
2021/09/15 12:35:20;;;;;;;13.57;7.88;;;;;;;;;;5032898;28;20372;-66
2021/09/15 12:37:45;;;;;;;15.57;7.80;;;;;;;;;;5033524;28;20043;-66
2021/09/15 12:40:17;;;;;;;13.32;7.30;;;;;;;;;;5034312;28;20418;-66
2021/09/15 12:42:42;;;;;;;15.45;7.18;;;;;;;;;;5034156;28;20026;-66
2021/09/15 12:45:11;;;;;;;11.35;6.97;;;;;;;;;;5033760;28;20025;-66
2021/09/15 12:47:43;;;;;;;10.70;7.25;;;;;;;;;;5034395;28;20017;-66
2021/09/15 12:50:17;;;;;;;11.55;6.43;;;;;;;;;;5034281;28;20524;-66
2021/09/15 12:52:42;;;;;;;10.27;6.15;;;;;;;;;;5034431;28;20029;-66
2021/09/15 12:55:08;;;;;;;15.15;7.18;;;;;;;;;;5033978;28;20456;-66
2021/09/15 12:57:33;;;;;;;12.02;6.80;;;;;;;;;;5034329;28;20167;-66
2021/09/15 13:00:21;;;;;;;9.75;6.80;;;;;;;;;;5034250;28;20357;-66
2021/09/15 13:02:53;;;;;;;13.45;7.28;;;;;;;;;;5033984;28;20045;-65
2021/09/15 13:05:18;;;;;;;12.82;7.38;;;;;;;;;;5033500;28;20025;-66
2021/09/15 13:07:43;;;;;;;11.35;7.60;;;;;;;;;;5033885;28;20026;-66
2021/09/15 13:10:09;;;;;;;12.05;7.50;;;;;;;;;;5032969;28;20163;-65
2021/09/15 13:12:35;;;;;;;14.23;7.20;;;;;;;;;;5033971;28;20452;-66
2021/09/15 13:15:02;;;;;;;12.32;6.53;;;;;;;;;;5033754;28;20030;-66
2021/09/15 13:17:28;;;;;;;9.57;6.70;;;;;;;;;;5033758;28;20084;-66
2021/09/15 13:19:53;;;;;;;10.82;5.55;;;;;;;;;;5033809;28;20033;-66
2021/09/15 13:22:18;;;;;;;13.40;6.25;;;;;;;;;;5033168;28;20045;-66
2021/09/15 13:24:45;;;;;;;11.77;6.00;;;;;;;;;;5033613;28;20029;-66
2021/09/15 13:27:10;;;;;;;10.05;6.18;;;;;;;;;;5033410;28;20042;-66
2021/09/15 13:29:37;;;;;;;13.15;6.10;;;;;;;;;;5032380;28;20353;-66
2021/09/15 13:32:03;;;;;;;13.88;6.10;;;;;;;;;;5033230;28;20452;-65
2021/09/15 13:34:28;;;;;;;13.10;6.00;;;;;;;;;;5032280;28;20017;-66
2021/09/15 13:36:53;;;;;;;11.40;6.30;;;;;;;;;;5033039;28;20057;-65
2021/09/15 13:39:19;;;;;;;10.13;6.25;;;;;;;;;;5033258;28;20028;-66
2021/09/15 13:41:44;;;;;;;9.60;6.13;;;;;;;;;;5032865;28;20045;-66
2021/09/15 13:44:10;;;;;;;11.93;6.15;;;;;;;;;;5033197;28;20039;-66
2021/09/15 13:46:35;;;;;;;10.65;5.80;;;;;;;;;;5031715;28;20033;-65
2021/09/15 13:49:01;;;;;;;11.23;5.70;;;;;;;;;;5032099;28;20475;-65
2021/09/15 13:51:26;;;;;;;10.57;5.82;;;;;;;;;;5033194;28;20401;-65
2021/09/15 13:53:51;;;;;;;10.35;6.65;;;;;;;;;;5033387;28;20113;-65
2021/09/15 13:56:16;;;;;;;12.77;6.22;;;;;;;;;;5032216;28;20050;-65
2021/09/15 13:58:42;;;;;;;11.45;6.50;;;;;;;;;;5033032;28;20079;-65
2021/09/15 14:01:07;;;;;;;13.30;6.25;;;;;;;;;;5031365;28;20057;-65
2021/09/15 14:03:32;;;;;;;10.88;6.03;;;;;;;;;;5033370;28;20067;-65
2021/09/15 14:05:57;;;;;;;15.63;6.63;;;;;;;;;;5032661;28;20022;-65
2021/09/15 14:08:23;;;;;;;13.27;6.25;;;;;;;;;;5032943;28;20056;-65
2021/09/15 14:10:48;;;;;;;12.32;6.10;;;;;;;;;;5032613;28;20038;-65
2021/09/15 14:13:13;;;;;;;11.30;5.85;;;;;;;;;;5032832;28;20041;-65
2021/09/15 14:15:39;;;;;;;13.15;5.60;;;;;;;;;;5030550;28;20052;-65
2021/09/15 14:18:04;;;;;;;9.15;4.93;;;;;;;;;;5030588;28;20025;-65
2021/09/15 14:20:29;;;;;;;9.63;4.45;;;;;;;;;;5030959;28;20021;-65
2021/09/15 14:22:55;;;;;;;12.07;5.13;;;;;;;;;;5026451;28;20021;-65
2021/09/15 14:25:20;;;;;;;8.80;5.45;;;;;;;;;;5023396;28;20034;-65
2021/09/15 14:27:45;;;;;;;10.40;5.82;;;;;;;;;;5003919;28;20217;-65